Time;durP1;ratioP1;P1;durP2;ratioP2;P2;SDS_P1;SDS_P2;PMS_P1;PMS_P2;Temp;Humidity;BMP_temperature;BMP_pressure;BME280_temperature;BME280_humidity;BME280_pressure;Samples;Min_cycle;Max_cycle;Signal;HPM_P1;HPM_P2
2022/08/11 00:02:05;;;;;;;7.75;3.85;;;;;;;30.21;54.35;100589.81;5075752;27;66960;-31
2022/08/11 00:04:44;;;;;;;14.15;3.97;;;;;;;30.21;54.32;100585.22;5064518;28;70018;-32
2022/08/11 00:07:16;;;;;;;14.23;4.70;;;;;;;30.28;54.94;100596.84;5068795;27;65797;-30
2022/08/11 00:09:48;;;;;;;8.70;4.25;;;;;;;30.34;55.77;100596.97;5058163;28;69917;-30
2022/08/11 00:12:19;;;;;;;;;;;;;;;30.01;58.25;100590.00;5068770;28;66331;-31
2022/08/11 00:15:01;;;;;;;7.70;4.93;;;;;;;29.95;61.88;100526.78;5065318;28;70756;-32
2022/08/11 00:17:33;;;;;;;;;;;;;;;30.09;60.57;100595.13;5062828;28;66579;-32
2022/08/11 00:20:11;;;;;;;12.57;6.30;;;;;;;30.31;59.16;100583.91;5061145;28;69561;-31
2022/08/11 00:22:48;;;;;;;11.23;5.88;;;;;;;30.53;58.92;100620.31;5061837;27;65623;-29
2022/08/11 00:25:21;;;;;;;10.10;5.57;;;;;;;30.56;58.98;100614.44;5059672;28;70744;-30
2022/08/11 00:27:52;;;;;;;5.43;4.82;;;;;;;30.60;58.29;100621.06;5056402;28;65966;-31
2022/08/11 00:30:24;;;;;;;8.27;5.47;;;;;;;30.55;58.26;100612.78;5057772;28;69187;-30
2022/08/11 00:32:58;;;;;;;6.90;4.70;;;;;;;30.29;58.55;100559.78;5059222;28;66036;-30
2022/08/11 00:35:32;;;;;;;4.97;4.57;;;;;;;30.67;59.16;100629.97;5040163;28;69157;-33
2022/08/11 00:38:25;;;;;;;6.45;4.75;;;;;;;30.71;58.49;100628.44;5074468;28;66709;-31
2022/08/11 00:41:10;;;;;;;5.18;4.35;;;;;;;30.75;59.54;100636.13;5061907;28;70207;-32
2022/08/11 00:44:07;;;;;;;4.45;4.10;;;;;;;30.72;59.31;100635.50;5053131;28;65501;-30
2022/08/11 00:46:45;;;;;;;8.57;4.70;;;;;;;30.79;59.07;100623.81;5058879;28;70371;-32
2022/08/11 00:49:41;;;;;;;5.00;4.50;;;;;;;30.69;59.94;100630.53;5069965;28;66606;-30
2022/08/11 00:52:45;;;;;;;7.55;5.43;;;;;;;30.72;60.17;100634.69;5052317;28;70242;-31
2022/08/11 00:55:47;;;;;;;6.93;4.80;;;;;;;30.68;59.85;100620.78;5064196;28;67234;-30
2022/08/11 00:58:59;;;;;;;6.40;4.20;;;;;;;30.40;59.28;100577.97;5046443;28;69731;-30
2022/08/11 01:01:37;;;;;;;5.32;4.80;;;;;;;30.86;59.49;100648.94;5049644;28;66345;-31
2022/08/11 01:04:27;;;;;;;6.15;4.57;;;;;;;30.90;58.39;100653.69;5058366;28;70079;-31
2022/08/11 01:07:30;;;;;;;8.90;4.65;;;;;;;30.44;59.23;100591.88;5059731;28;66751;-31
2022/08/11 01:10:27;;;;;;;7.13;4.20;;;;;;;30.92;58.76;100667.84;5048814;28;70893;-31
2022/08/11 01:13:47;;;;;;;6.38;4.43;;;;;;;30.86;59.22;100678.72;5060070;28;65538;-31
2022/08/11 01:17:13;;;;;;;9.35;4.75;;;;;;;30.80;59.35;100685.06;5054000;28;69109;-31
2022/08/11 01:19:56;;;;;;;6.38;4.43;;;;;;;30.88;59.02;100666.63;5037208;28;65478;-31
2022/08/11 01:23:08;;;;;;;4.47;4.07;;;;;;;31.02;57.89;100678.13;5059083;28;69798;-31
2022/08/11 01:26:21;;;;;;;4.85;4.40;;;;;;;30.94;58.17;100670.31;5066523;28;66189;-31
2022/08/11 01:28:52;;;;;;;6.50;4.63;;;;;;;31.04;57.67;100684.16;5066375;28;70433;-30
2022/08/11 01:31:55;;;;;;;5.20;4.75;;;;;;;30.98;57.89;100682.34;5062119;28;65046;-30
2022/08/11 01:34:27;;;;;;;5.50;4.40;;;;;;;31.08;57.67;100688.06;5053262;28;70390;-32
2022/08/11 01:37:39;;;;;;;5.60;4.60;;;;;;;30.99;58.16;100700.25;5078168;27;67089;-31
2022/08/11 01:40:13;;;;;;;5.03;4.53;;;;;;;31.11;57.59;100701.16;5075623;28;70119;-30
2022/08/11 01:46:41;;;;;;;4.88;4.28;;;;;;;31.19;57.48;100705.44;5074921;28;69172;-31
2022/08/11 01:49:36;;;;;;;4.72;4.32;;;;;;;30.85;57.59;100660.84;5012247;28;65990;-31
2022/08/11 01:52:47;;;;;;;4.97;4.57;;;;;;;30.92;57.53;100666.97;5073422;27;70501;-32
2022/08/11 01:55:44;;;;;;;5.00;4.60;;;;;;;30.79;57.56;100632.75;5076404;27;66156;-31
2022/08/11 01:58:47;;;;;;;4.78;4.28;;;;;;;31.13;57.67;100701.75;5053698;28;69672;-31
2022/08/11 02:01:43;;;;;;;4.93;4.53;;;;;;;31.16;57.12;100695.88;5021433;28;66919;-31
2022/08/11 02:04:24;;;;;;;7.15;4.50;;;;;;;31.29;57.05;100710.34;5067830;27;69202;-31
2022/08/11 02:07:19;;;;;;;5.07;4.70;;;;;;;31.31;57.41;100703.63;5072043;27;66452;-30
2022/08/11 02:13:33;;;;;;;5.32;4.93;;;;;;;31.38;57.21;100709.00;5066169;28;66629;-31
2022/08/11 02:16:40;;;;;;;5.88;5.47;;;;;;;31.00;57.10;100666.69;5066720;28;70644;-33
2022/08/11 02:25:10;;;;;;;6.32;5.82;;;;;;;31.41;57.72;100718.56;5060558;28;66747;-30
2022/08/11 02:28:41;;;;;;;7.00;6.40;;;;;;;31.35;57.98;100728.41;5053483;27;69314;-30
2022/08/11 02:35:41;;;;;;;5.93;5.35;;;;;;;31.12;57.77;100667.59;5059943;28;70031;-31
2022/08/11 02:38:28;;;;;;;6.45;5.95;;;;;;;31.15;57.39;100672.56;5008190;28;66172;-32
2022/08/11 02:42:21;;;;;;;6.30;5.80;;;;;;;31.65;57.48;100724.91;5068345;28;70117;-31
2022/08/11 02:44:12;;;;;;;6.72;6.13;;;;;;;31.62;57.65;100731.59;5064538;28;66940;-31
2022/08/11 02:46:51;;;;;;;5.97;5.45;;;;;;;31.71;57.35;100719.41;5080527;27;70833;-31
2022/08/11 02:49:55;;;;;;;6.80;6.30;;;;;;;31.76;57.63;100716.84;5074938;28;67017;-31
2022/08/11 02:52:59;;;;;;;7.15;6.25;;;;;;;31.42;57.69;100661.41;5061864;28;70753;-31
2022/08/11 02:55:56;;;;;;;6.45;5.95;;;;;;;31.75;57.67;100708.91;5067526;28;66439;-32
2022/08/11 02:58:38;;;;;;;6.90;6.25;;;;;;;31.82;57.73;100715.09;5055039;28;71420;-31
2022/08/11 03:01:27;;;;;;;9.07;6.45;;;;;;;31.82;57.36;100709.66;5061359;28;66074;-30
2022/08/11 03:04:17;;;;;;;6.60;6.15;;;;;;;31.48;57.51;100644.22;5057693;28;70852;-31
2022/08/11 03:07:00;;;;;;;7.47;6.78;;;;;;;31.96;57.65;100716.56;5067144;28;67066;-31
2022/08/11 03:09:38;;;;;;;6.47;6.07;;;;;;;32.00;57.09;100700.66;5054624;28;70372;-31
2022/08/11 03:18:36;;;;;;;6.90;6.30;;;;;;;32.03;57.33;100690.16;5069702;27;66988;-31
2022/08/11 03:21:36;;;;;;;7.15;6.65;;;;;;;32.04;57.43;100674.72;5058435;28;70590;-31
2022/08/11 03:24:36;;;;;;;7.45;6.88;;;;;;;31.82;57.26;100622.88;5060451;28;67034;-31
2022/08/11 03:27:36;;;;;;;7.90;6.60;;;;;;;31.81;57.13;100615.78;5052976;28;70273;-31
2022/08/11 03:30:54;;;;;;;7.40;6.60;;;;;;;32.10;57.42;100660.22;5059047;28;66398;-30
2022/08/11 03:34:01;;;;;;;11.27;7.15;;;;;;;32.20;57.51;100684.03;5053498;28;70815;-31
2022/08/11 03:38:05;;;;;;;7.07;6.57;;;;;;;32.00;57.92;100679.75;5071968;28;65981;-30
2022/08/11 03:41:41;;;;;;;7.22;6.60;;;;;;;32.23;57.55;100672.72;5005046;28;70758;-31
2022/08/11 03:43:46;;;;;;;9.35;7.30;;;;;;;32.23;58.18;100661.88;5018245;28;66124;-30
2022/08/11 03:47:02;;;;;;;9.93;7.13;;;;;;;32.18;58.11;100651.72;5059567;28;70691;-31
2022/08/11 03:50:02;;;;;;;10.00;6.80;;;;;;;31.92;57.92;100590.59;5060491;28;67389;-31
2022/08/11 03:52:41;;;;;;;8.52;7.07;;;;;;;32.26;58.10;100636.97;5060754;28;70690;-31
2022/08/11 03:55:14;;;;;;;7.50;6.90;;;;;;;32.28;57.44;100634.84;5061468;28;67003;-31
2022/08/11 03:58:20;;;;;;;9.73;7.90;;;;;;;32.22;58.08;100638.50;5062842;28;70714;-32
2022/08/11 04:01:23;;;;;;;7.80;7.03;;;;;;;32.23;57.95;100629.28;5061169;28;66910;-31
2022/08/11 04:04:08;;;;;;;14.13;7.43;;;;;;;32.27;57.89;100616.91;5056917;28;70970;-32
2022/08/11 04:07:11;;;;;;;7.75;6.95;;;;;;;32.25;58.07;100621.75;5050552;28;66310;-31
2022/08/11 04:09:57;;;;;;;10.95;7.20;;;;;;;32.31;57.74;100615.38;5055140;28;70582;-31
2022/08/11 04:12:35;;;;;;;8.35;7.50;;;;;;;32.31;57.71;100609.13;5050586;28;66136;-31
2022/08/11 04:18:41;;;;;;;8.30;7.65;;;;;;;32.22;58.38;100597.81;5066395;28;66449;-32
2022/08/11 04:21:35;;;;;;;10.70;8.32;;;;;;;32.30;58.15;100613.72;5056922;28;71634;-31
2022/08/11 04:24:08;;;;;;;9.38;7.95;;;;;;;32.33;57.96;100683.84;5059905;28;66296;-31
2022/08/11 04:27:37;;;;;;;7.35;6.75;;;;;;;32.25;58.67;100697.75;5061982;28;71290;-32
2022/08/11 04:30:54;;;;;;;9.07;6.75;;;;;;;32.16;59.36;100704.59;5061289;28;66906;-33
2022/08/11 04:33:41;;;;;;;8.43;7.18;;;;;;;31.85;60.32;100627.00;5032931;28;71154;-33
2022/08/11 04:40:23;;;;;;;7.53;6.83;;;;;;;32.14;60.41;100698.56;5036827;28;68946;-32
2022/08/11 04:43:20;;;;;;;9.18;6.82;;;;;;;32.13;60.53;100683.34;5037227;28;66890;-31
2022/08/11 04:46:20;;;;;;;6.93;5.90;;;;;;;32.19;60.16;100685.13;5063806;28;71049;-31
2022/08/11 05:02:06;;;;;;;6.72;5.72;;;;;;;32.00;61.21;100658.06;5052788;28;67155;-31
2022/08/11 05:08:22;;;;;;;7.43;5.07;;;;;;;32.09;61.33;100644.16;5042588;28;66756;-31
2022/08/11 05:11:25;;;;;;;5.93;5.25;;;;;;;31.97;61.29;100639.53;5046658;28;70238;-31
2022/08/11 05:34:53;;;;;;;3.58;3.38;;;;;;;31.95;60.82;100651.69;5058656;28;71158;-32
2022/08/11 05:37:29;;;;;;;3.63;3.42;;;;;;;31.94;61.53;100652.75;5059142;28;66715;-31
2022/08/11 05:57:38;;;;;;;3.47;2.60;;;;;;;31.82;60.95;100650.00;5062284;28;70844;-31
2022/08/11 06:00:23;;;;;;;3.20;2.90;;;;;;;31.76;60.90;100638.19;5063484;28;67169;-32
2022/08/11 06:03:00;;;;;;;3.42;3.13;;;;;;;31.80;61.10;100663.78;5063503;28;71286;-31
2022/08/11 06:05:35;;;;;;;8.70;2.80;;;;;;;31.81;61.07;100675.44;5063055;28;67420;-31
2022/08/11 06:08:15;;;;;;;3.53;3.23;;;;;;;31.42;60.85;100604.47;5056136;28;70904;-30
2022/08/11 06:10:48;;;;;;;3.70;3.40;;;;;;;31.80;61.01;100673.81;5062060;28;66310;-31
2022/08/11 06:13:23;;;;;;;15.38;4.53;;;;;;;31.79;60.79;100669.44;5051959;28;70899;-31
2022/08/11 06:15:58;;;;;;;5.38;2.92;;;;;;;31.46;60.91;100613.81;5056369;28;66928;-31
2022/08/11 06:18:37;;;;;;;3.20;2.90;;;;;;;31.78;61.45;100670.47;5063815;28;70272;-31
2022/08/11 06:21:11;;;;;;;3.25;3.05;;;;;;;31.39;61.04;100603.03;5061694;28;66265;-31
2022/08/11 06:23:44;;;;;;;3.17;2.85;;;;;;;31.80;60.83;100668.38;5063662;28;71316;-32
2022/08/11 06:26:19;;;;;;;3.47;2.85;;;;;;;31.80;60.75;100657.53;5049068;28;66381;-31
2022/08/11 06:28:57;;;;;;;3.03;2.83;;;;;;;31.80;60.81;100652.94;5062447;28;70829;-31
2022/08/11 06:31:33;;;;;;;5.90;2.75;;;;;;;31.76;60.50;100638.19;5063456;28;66150;-33
2022/08/11 06:34:22;;;;;;;3.35;3.05;;;;;;;31.79;60.76;100647.75;5059785;28;70427;-31
2022/08/11 06:37:25;;;;;;;3.60;3.30;;;;;;;31.75;60.68;100632.97;5057326;28;66660;-31
2022/08/11 06:40:23;;;;;;;4.22;3.45;;;;;;;31.77;60.55;100639.00;5072985;27;70749;-31
2022/08/11 06:43:20;;;;;;;3.17;2.97;;;;;;;31.75;60.83;100633.81;5039466;28;66479;-32
2022/08/11 06:46:07;;;;;;;3.45;3.15;;;;;;;31.76;61.09;100624.63;5077594;27;70078;-31
2022/08/11 06:48:43;;;;;;;3.08;2.88;;;;;;;31.75;60.72;100632.97;5063152;28;66824;-33
2022/08/11 06:51:16;;;;;;;3.47;3.17;;;;;;;31.76;60.83;100623.78;5074225;27;70757;-31
2022/08/11 06:53:58;;;;;;;3.83;3.53;;;;;;;31.75;60.77;100622.13;5078316;28;66781;-32
2022/08/11 07:02:48;;;;;;;4.20;3.80;;;;;;;31.72;61.11;100623.41;5064429;28;70748;-32
2022/08/11 07:05:23;;;;;;;4.13;3.75;;;;;;;31.49;61.08;100588.94;5074647;28;67448;-32
2022/08/11 07:17:21;;;;;;;3.53;3.22;;;;;;;31.53;61.13;100619.94;5062969;28;66634;-31
2022/08/11 07:28:59;;;;;;;4.00;3.70;;;;;;;31.61;61.30;100644.03;5002325;28;67451;-31
2022/08/11 07:31:36;;;;;;;3.90;3.30;;;;;;;31.57;61.26;100634.72;5067676;28;70819;-31
2022/08/11 07:34:34;;;;;;;4.20;3.80;;;;;;;31.52;61.30;100629.16;5061977;27;66261;-31
2022/08/11 07:37:18;;;;;;;4.13;3.70;;;;;;;31.49;61.04;100607.94;5050761;28;69990;-32
2022/08/11 07:39:52;;;;;;;7.00;3.38;;;;;;;31.61;61.18;100630.47;5065346;28;66985;-31
2022/08/11 07:42:36;;;;;;;8.75;3.47;;;;;;;31.53;61.05;100609.09;5078573;28;70887;-33
2022/08/11 07:53:44;;;;;;;4.45;3.47;;;;;;;31.50;61.13;100592.47;5071016;28;70585;-32
2022/08/11 07:56:38;;;;;;;3.78;3.47;;;;;;;31.57;61.64;100602.19;5073332;28;67078;-32
2022/08/11 08:19:55;;;;;;;3.25;2.95;;;;;;;31.53;61.37;100614.53;5053836;28;66411;-31
2022/08/11 08:22:28;;;;;;;3.50;3.17;;;;;;;31.53;61.16;100609.09;5064932;28;70487;-32
2022/08/11 08:25:19;;;;;;;2.97;2.65;;;;;;;31.53;61.11;100609.09;5063326;28;66242;-35
2022/08/11 08:27:53;;;;;;;5.40;3.10;;;;;;;31.16;61.39;100554.97;5062278;28;70367;-31
2022/08/11 08:30:46;;;;;;;3.33;3.03;;;;;;;31.51;61.38;100624.78;5064276;28;66626;-32
2022/08/11 08:33:23;;;;;;;3.15;2.78;;;;;;;31.53;61.72;100619.13;5062337;28;71204;-31
2022/08/11 08:36:15;;;;;;;3.35;2.97;;;;;;;31.50;61.08;100625.84;5060714;28;67032;-31
2022/08/11 08:38:53;;;;;;;2.80;2.60;;;;;;;31.52;61.79;100612.88;5049497;28;70823;-32
2022/08/11 08:41:31;;;;;;;3.25;2.95;;;;;;;30.85;61.48;100501.06;5060553;28;67085;-32
2022/08/11 08:44:09;;;;;;;3.28;2.97;;;;;;;31.12;61.53;100540.25;5060279;28;70895;-32
2022/08/11 08:47:04;;;;;;;3.22;2.92;;;;;;;31.15;61.66;100542.50;5051168;28;67593;-32
2022/08/11 08:49:47;;;;;;;2.60;2.40;;;;;;;31.51;61.50;100594.97;5059299;28;70693;-31
2022/08/11 08:52:24;;;;;;;3.17;2.88;;;;;;;31.11;61.75;100527.75;5057227;28;67139;-32
2022/08/11 08:55:06;;;;;;;4.20;3.17;;;;;;;31.42;61.62;100579.25;5044578;28;70782;-32
2022/08/11 08:57:43;;;;;;;4.70;3.35;;;;;;;31.49;61.45;100594.38;5057735;28;66699;-32
2022/08/11 09:00:16;;;;;;;3.28;2.95;;;;;;;31.48;61.52;100584.59;5060379;28;70352;-32
2022/08/11 09:02:54;;;;;;;3.40;3.10;;;;;;;31.48;61.81;100584.59;5057934;28;66422;-32
2022/08/11 09:05:28;;;;;;;3.90;3.50;;;;;;;31.47;61.46;100577.50;5071474;28;71031;-31
2022/08/11 09:08:01;;;;;;;3.42;3.13;;;;;;;31.36;61.72;100556.63;5058916;28;67105;-33
2022/08/11 09:10:35;;;;;;;3.75;3.30;;;;;;;31.47;61.34;100577.50;5061341;28;71117;-32
2022/08/11 09:13:08;;;;;;;4.28;3.45;;;;;;;31.46;61.51;100575.84;5054942;28;66933;-31
2022/08/11 09:15:41;;;;;;;3.50;2.95;;;;;;;31.46;61.29;100573.16;5069608;28;70676;-33
2022/08/11 09:18:17;;;;;;;4.03;3.53;;;;;;;30.79;61.76;100456.72;5061462;28;66458;-32
2022/08/11 09:20:50;;;;;;;3.53;3.22;;;;;;;31.45;61.74;100574.19;5049028;28;70933;-31
2022/08/11 09:29:31;;;;;;;4.00;3.60;;;;;;;31.11;61.60;100527.75;5060268;28;66838;-31
2022/08/11 09:32:07;;;;;;;5.22;3.70;;;;;;;31.39;61.27;100567.00;5070566;28;70884;-32
2022/08/11 09:34:40;;;;;;;3.65;3.35;;;;;;;31.40;61.77;100568.66;5063259;28;67469;-32
2022/08/11 09:40:28;;;;;;;3.83;3.47;;;;;;;31.12;61.24;100539.41;5060912;28;67027;-31
2022/08/11 09:45:59;;;;;;;4.15;3.83;;;;;;;31.05;61.47;100528.69;5075031;28;66369;-32
2022/08/11 09:48:46;;;;;;;3.70;3.45;;;;;;;31.41;61.54;100589.28;5064406;28;70117;-31
2022/08/11 09:51:21;;;;;;;3.83;3.50;;;;;;;31.11;61.51;100527.75;5063152;28;66399;-31
2022/08/11 09:53:54;;;;;;;3.72;3.38;;;;;;;31.41;61.49;100586.56;5061667;28;70243;-32
2022/08/11 09:59:25;;;;;;;4.65;4.30;;;;;;;31.38;61.64;100576.19;5061654;28;70708;-30
2022/08/11 10:02:01;;;;;;;4.22;3.90;;;;;;;31.03;61.45;100517.25;5062653;28;66433;-30
2022/08/11 10:04:44;;;;;;;4.50;4.10;;;;;;;31.21;61.73;100553.47;5057476;28;71047;-32
2022/08/11 10:07:20;;;;;;;4.32;4.03;;;;;;;31.35;61.32;100568.50;5064240;27;66285;-32
2022/08/11 10:10:01;;;;;;;4.38;3.88;;;;;;;31.36;61.92;100589.13;5049456;28;70905;-31
2022/08/11 10:12:41;;;;;;;4.07;3.78;;;;;;;30.98;61.44;100514.41;5052370;28;66196;-31
2022/08/11 10:15:33;;;;;;;4.10;3.80;;;;;;;31.09;61.44;100534.47;5046691;28;70883;-30
2022/08/11 10:21:29;;;;;;;4.75;4.18;;;;;;;31.32;61.47;100580.63;5044947;28;70845;-30
2022/08/11 10:26:54;;;;;;;;;;;;;;;31.00;62.70;100582.72;5052625;27;70723;-31
2022/08/11 10:35:31;;;;;;;12.52;9.02;;;;;;;30.57;64.38;100518.66;5054326;28;66283;-31
2022/08/11 10:38:05;;;;;;;17.85;10.75;;;;;;;30.75;64.91;100580.06;5052946;28;70796;-31
2022/08/11 10:40:44;;;;;;;15.15;10.23;;;;;;;29.93;66.26;100468.56;5043814;28;66379;-31
2022/08/11 10:43:17;;;;;;;12.32;10.75;;;;;;;30.58;66.79;100590.69;5049479;28;70591;-32
2022/08/11 10:49:02;;;;;;;13.57;11.32;;;;;;;30.47;67.58;100591.44;5048283;28;70957;-31
2022/08/11 11:00:34;;;;;;;15.07;10.13;;;;;;;30.70;66.50;100609.72;5061284;28;70330;-32
2022/08/11 11:03:09;;;;;;;20.95;11.20;;;;;;;30.84;66.62;100607.72;5052371;28;66149;-31
2022/08/11 11:06:01;;;;;;;16.05;11.15;;;;;;;30.92;66.30;100612.81;5057227;28;70872;-33
2022/08/11 11:09:02;;;;;;;12.15;10.88;;;;;;;30.81;66.69;100605.44;5047350;28;66554;-31
2022/08/11 11:18:34;;;;;;;13.32;9.40;;;;;;;30.74;65.50;100562.19;5053536;28;71241;-32
2022/08/11 11:21:17;;;;;;;11.63;9.73;;;;;;;31.12;65.73;100623.41;5055910;28;67200;-32
2022/08/11 11:24:12;;;;;;;10.82;9.60;;;;;;;31.09;65.63;100613.88;5061948;28;69822;-34
2022/08/11 11:27:27;;;;;;;;;;;;;;;30.80;66.88;100614.63;5047492;28;66942;-33
2022/08/11 11:30:08;;;;;;;15.27;11.10;;;;;;;30.85;65.34;100563.34;5034804;28;70456;-33
2022/08/11 11:33:17;;;;;;;17.50;12.63;;;;;;;31.09;66.38;100592.19;5047144;28;66907;-34
2022/08/11 11:36:18;;;;;;;19.10;12.75;;;;;;;31.09;66.76;100613.88;5027661;27;70593;-32
2022/08/11 11:38:55;;;;;;;14.05;11.40;;;;;;;31.18;65.68;100600.84;5076949;28;66301;-31
2022/08/11 11:41:42;;;;;;;14.43;11.55;;;;;;;30.84;65.64;100545.41;5077989;28;70330;-35
2022/08/11 11:44:24;;;;;;;15.23;11.25;;;;;;;31.19;65.08;100607.06;5076247;28;66489;-32
2022/08/11 11:47:01;;;;;;;11.48;10.27;;;;;;;30.80;64.87;100552.34;5052103;28;70729;-33
2022/08/11 11:49:45;;;;;;;11.07;10.18;;;;;;;31.13;64.74;100604.22;5071694;28;67040;-33
2022/08/11 11:52:22;;;;;;;18.00;11.35;;;;;;;31.16;64.74;100609.19;5051807;28;70172;-33
2022/08/11 11:55:02;;;;;;;11.93;10.55;;;;;;;30.82;65.03;100556.50;5059776;28;66389;-33
2022/08/11 12:03:36;;;;;;;17.10;11.43;;;;;;;31.19;64.66;100626.03;5050677;28;68868;-32
2022/08/11 12:06:13;;;;;;;14.20;11.85;;;;;;;31.22;64.66;100617.44;5053266;28;65747;-32
2022/08/11 12:08:50;;;;;;;16.48;11.95;;;;;;;31.22;64.68;100633.72;5056264;28;71265;-32
2022/08/11 12:14:20;;;;;;;16.75;11.55;;;;;;;30.86;64.99;100597.47;5052400;28;70149;-32
2022/08/11 12:16:55;;;;;;;14.60;11.02;;;;;;;30.96;64.49;100622.16;5048860;28;66042;-31
2022/08/11 12:19:29;;;;;;;11.95;10.40;;;;;;;31.13;64.80;100661.13;5047743;28;70794;-32
2022/08/11 12:28:02;;;;;;;14.13;10.18;;;;;;;31.10;64.79;100675.13;5057677;28;67040;-31
2022/08/11 12:30:36;;;;;;;12.57;9.52;;;;;;;31.14;64.92;100676.31;5049176;28;70953;-32
2022/08/11 12:33:26;;;;;;;11.18;10.00;;;;;;;31.16;64.70;100687.75;5055085;28;67814;-33
2022/08/11 12:36:15;;;;;;;15.98;10.32;;;;;;;31.04;65.22;100667.91;5051604;27;71225;-32
2022/08/11 12:38:55;;;;;;;11.35;10.23;;;;;;;31.14;65.48;100681.72;5050831;28;65974;-32
2022/08/11 12:51:55;;;;;;;10.18;9.23;;;;;;;31.15;65.30;100699.66;5053939;28;70474;-31
2022/08/11 12:53:56;;;;;;;18.98;10.57;;;;;;;30.35;67.16;100639.25;5054906;28;70844;-28
2022/08/11 13:05:31;;;;;;;10.73;9.70;;;;;;;30.40;69.72;100732.25;5060355;28;70740;-27
2022/08/11 13:08:19;;;;;;;10.32;9.52;;;;;;;30.37;69.83;100738.09;5053861;27;66172;-28
2022/08/11 13:14:00;;;;;;;14.73;9.52;;;;;;;30.34;69.97;100760.19;5048592;28;66413;-31
2022/08/11 13:19:37;;;;;;;13.43;8.55;;;;;;;30.06;70.58;100717.25;5054120;28;67129;-30
2022/08/11 13:22:21;;;;;;;19.13;8.70;;;;;;;30.35;71.57;100778.06;5059130;28;70822;-28
2022/08/11 13:24:56;;;;;;;14.88;11.18;;;;;;;30.21;70.52;100760.25;5060770;28;66783;-31
2022/08/11 13:27:36;;;;;;;12.70;11.43;;;;;;;30.14;70.14;100762.97;5059760;28;70760;-32
2022/08/11 13:33:29;;;;;;;16.50;10.77;;;;;;;29.14;66.99;100646.41;5053010;28;70154;-30
2022/08/11 13:36:14;;;;;;;12.48;10.85;;;;;;;29.93;64.83;100774.16;5069725;28;67622;-29
2022/08/11 13:39:03;;;;;;;16.50;9.90;;;;;;;29.84;64.64;100779.81;5054729;28;70720;-30
2022/08/11 13:41:42;;;;;;;13.80;9.15;;;;;;;29.76;62.63;100785.47;5057273;28;65488;-30
2022/08/11 13:44:27;;;;;;;9.30;8.48;;;;;;;29.08;61.95;100702.13;5056324;28;70069;-29
2022/08/11 13:47:12;;;;;;;12.02;9.13;;;;;;;28.79;61.21;100662.91;5052392;28;67168;-31
2022/08/11 13:50:02;;;;;;;8.77;7.88;;;;;;;29.52;60.55;100799.66;5053596;28;70707;-31
2022/08/11 13:52:58;;;;;;;9.52;7.57;;;;;;;29.47;60.71;100805.69;5049862;28;66972;-30
2022/08/11 13:55:48;;;;;;;9.90;7.13;;;;;;;29.43;59.70;100822.56;5051690;28;70386;-29
2022/08/11 13:58:31;;;;;;;10.05;8.05;;;;;;;29.33;59.81;100829.22;5051537;28;66885;-29
2022/08/11 14:01:12;;;;;;;8.60;7.80;;;;;;;29.15;60.00;100818.25;5050693;28;70992;-30
2022/08/11 14:04:16;;;;;;;8.95;8.07;;;;;;;28.77;59.38;100772.97;5050833;28;66292;-31
2022/08/11 14:07:09;;;;;;;7.97;7.47;;;;;;;29.13;59.27;100855.44;5039320;28;70202;-31
2022/08/11 14:09:44;;;;;;;13.45;7.65;;;;;;;28.95;58.79;100829.88;5055763;28;66622;-29
2022/08/11 14:15:35;;;;;;;8.55;7.75;;;;;;;28.83;59.42;100834.22;5057957;28;66959;-29
2022/08/11 14:18:29;;;;;;;15.32;7.57;;;;;;;28.34;59.72;100786.03;5062441;28;70268;-30
2022/08/11 14:24:23;;;;;;;10.70;6.95;;;;;;;28.80;57.57;100853.53;5055490;28;71315;-30
2022/08/11 14:27:01;;;;;;;9.80;6.93;;;;;;;28.82;57.52;100845.25;5054452;28;66938;-30
2022/08/11 14:29:55;;;;;;;18.63;7.13;;;;;;;28.79;56.07;100854.59;5054586;28;70682;-29
2022/08/11 14:32:29;;;;;;;6.80;6.30;;;;;;;28.82;56.30;100861.44;5058567;28;66582;-29
2022/08/11 14:35:14;;;;;;;8.82;6.53;;;;;;;28.76;55.77;100867.69;5048723;28;69866;-30
2022/08/11 14:37:55;;;;;;;7.28;6.05;;;;;;;28.63;54.82;100857.69;5053563;28;66956;-29
2022/08/11 14:49:29;;;;;;;;;;;;;;;28.37;55.78;100886.25;5061034;28;67181;-31
2022/08/11 14:52:09;;;;;;;12.77;6.63;;;;;;;28.66;54.74;100906.69;5060531;28;70862;-31
2022/08/11 14:57:41;;;;;;;14.70;5.65;;;;;;;28.55;53.61;100899.19;5055244;28;70031;-31
2022/08/11 15:00:35;;;;;;;6.22;5.72;;;;;;;28.52;53.52;100900.41;5058569;28;66708;-32
2022/08/11 15:03:11;;;;;;;5.43;5.03;;;;;;;28.44;52.71;100880.91;5054464;28;70765;-32
2022/08/11 15:06:10;;;;;;;6.15;4.75;;;;;;;28.41;52.20;100909.06;5061754;28;67212;-31
2022/08/11 15:08:56;;;;;;;7.00;5.10;;;;;;;28.50;52.57;100907.91;5055141;28;70621;-31
2022/08/11 15:17:13;;;;;;;7.85;4.78;;;;;;;28.39;52.25;100905.78;5059109;28;66182;-31
2022/08/11 15:25:33;;;;;;;4.68;4.43;;;;;;;28.32;51.66;100898.69;5062349;28;70928;-31
2022/08/11 15:46:22;;;;;;;8.05;4.60;;;;;;;28.32;52.87;100899.50;5055332;28;66868;-31
2022/08/11 15:49:11;;;;;;;5.00;4.38;;;;;;;28.19;52.25;100894.88;5053721;28;70411;-30
2022/08/11 15:52:08;;;;;;;6.95;5.10;;;;;;;27.86;51.54;100838.16;5054942;28;66294;-29
2022/08/11 15:54:45;;;;;;;4.07;3.78;;;;;;;28.16;51.61;100881.81;5048352;28;70514;-31
2022/08/11 16:06:17;;;;;;;3.95;3.65;;;;;;;28.24;50.44;100902.38;5055862;28;71037;-30
2022/08/11 16:08:58;;;;;;;4.05;3.60;;;;;;;28.12;50.82;100877.88;5049897;28;66144;-28
2022/08/11 16:11:35;;;;;;;8.13;4.20;;;;;;;28.27;50.52;100901.97;5053826;28;43134;-28
2022/08/11 16:17:02;;;;;;;4.30;3.60;;;;;;;28.13;49.99;100878.69;5050395;28;70421;-32
2022/08/11 16:19:36;;;;;;;3.58;3.38;;;;;;;28.26;49.79;100895.75;5040839;28;66175;-29
2022/08/11 16:22:16;;;;;;;4.05;3.75;;;;;;;28.24;49.46;100891.59;5062006;28;71311;-29
2022/08/11 16:24:50;;;;;;;4.15;3.85;;;;;;;27.73;49.39;100805.72;5053807;28;66862;-29
2022/08/11 16:27:47;;;;;;;3.58;3.38;;;;;;;27.74;48.48;100810.06;5051756;28;70627;-30
2022/08/11 16:30:21;;;;;;;4.45;4.10;;;;;;;28.22;49.07;100882.88;5065415;28;66134;-29
2022/08/11 16:32:55;;;;;;;5.90;3.50;;;;;;;27.81;49.02;100794.81;5050945;28;70915;-28
2022/08/11 16:38:35;;;;;;;5.97;4.13;;;;;;;28.32;47.69;100888.72;5053647;28;70885;-30
2022/08/11 16:41:10;;;;;;;3.85;3.60;;;;;;;28.32;48.11;100894.13;5044332;28;67052;-30
2022/08/11 16:49:36;;;;;;;7.15;4.38;;;;;;;27.87;47.29;100825.50;5059342;28;70833;-29
2022/08/11 16:52:12;;;;;;;6.68;3.78;;;;;;;28.19;48.72;100877.88;5057933;28;66219;-29
2022/08/11 16:54:47;;;;;;;5.15;4.20;;;;;;;28.22;48.49;100872.09;5061401;28;70915;-30
2022/08/11 17:00:15;;;;;;;;;;;;;;;27.57;47.56;100858.09;5057833;28;70508;-27
2022/08/11 17:15:01;;;;;;;11.57;4.78;;;;;;;26.96;46.76;100689.06;5059876;28;66793;-29
2022/08/11 17:17:38;;;;;;;12.98;4.93;;;;;;;27.93;47.21;100825.53;5060794;28;70608;-28
2022/08/11 17:20:14;;;;;;;8.05;4.60;;;;;;;27.98;47.22;100839.25;5063244;28;66934;-29
2022/08/11 17:25:59;;;;;;;7.15;4.85;;;;;;;27.78;47.13;100800.56;5056236;28;66551;-29
2022/08/11 17:28:35;;;;;;;7.38;4.47;;;;;;;27.92;47.29;100823.88;5055989;28;70225;-28
2022/08/11 17:36:54;;;;;;;4.95;4.65;;;;;;;27.90;46.62;100842.09;5060293;28;67098;-29
2022/08/11 17:39:30;;;;;;;5.10;4.70;;;;;;;27.50;45.34;100761.06;5061062;28;70905;-29
2022/08/11 17:50:41;;;;;;;6.03;5.43;;;;;;;27.75;46.78;100800.94;5061528;28;70880;-27
2022/08/11 18:01:54;;;;;;;5.10;4.80;;;;;;;27.66;45.92;100791.38;5080161;27;70513;-28
2022/08/11 18:04:28;;;;;;;4.80;4.40;;;;;;;27.75;46.27;100785.63;5076734;27;67485;-28
2022/08/11 18:07:01;;;;;;;6.93;4.82;;;;;;;27.75;46.27;100787.47;5063900;27;70114;-28
